Time;durP1;ratioP1;P1;durP2;ratioP2;P2;SDS_P1;SDS_P2;PMS_P1;PMS_P2;Temp;Humidity;BMP_temperature;BMP_pressure;BME280_temperature;BME280_humidity;BME280_pressure;Samples;Min_cycle;Max_cycle;Signal;HPM_P1;HPM_P2
2022/11/14 00:02:02;;;;;;;13.78;4.70;;;;;;;;;;1721874;81;20904;-88
2022/11/14 00:04:28;;;;;;;11.97;4.62;;;;;;;;;;1718832;81;21116;-89
2022/11/14 00:06:54;;;;;;;13.45;5.37;;;;;;;;;;1719124;83;21372;-89
2022/11/14 00:09:25;;;;;;;13.03;4.95;;;;;;;;;;1718944;82;20999;-89
2022/11/14 00:11:50;;;;;;;16.97;4.78;;;;;;;;;;1718937;82;21973;-89
2022/11/14 00:14:16;;;;;;;13.58;5.35;;;;;;;;;;1718938;81;20896;-89
2022/11/14 00:16:42;;;;;;;14.80;5.53;;;;;;;;;;1719018;81;20848;-89
2022/11/14 00:19:08;;;;;;;12.47;4.62;;;;;;;;;;1718615;81;20805;-90
2022/11/14 00:21:33;;;;;;;9.23;4.50;;;;;;;;;;1719025;81;20904;-89
2022/11/14 00:23:59;;;;;;;16.90;5.87;;;;;;;;;;1718767;82;21908;-90
2022/11/14 00:26:24;;;;;;;13.95;5.50;;;;;;;;;;1718817;81;20924;-90
2022/11/14 00:28:50;;;;;;;14.83;5.20;;;;;;;;;;1718878;81;20955;-90
2022/11/14 00:31:16;;;;;;;12.98;4.58;;;;;;;;;;1718906;81;20833;-90
2022/11/14 00:33:41;;;;;;;13.40;4.70;;;;;;;;;;1718968;81;21745;-90
2022/11/14 00:36:07;;;;;;;11.95;4.30;;;;;;;;;;1718817;81;21103;-90
2022/11/14 00:38:33;;;;;;;15.55;4.10;;;;;;;;;;1718875;81;21008;-90
2022/11/14 00:40:59;;;;;;;11.63;4.35;;;;;;;;;;1718812;81;20845;-90
2022/11/14 00:43:24;;;;;;;14.47;4.72;;;;;;;;;;1718890;81;20813;-91
2022/11/14 00:45:50;;;;;;;9.93;4.35;;;;;;;;;;1718819;81;20951;-91
2022/11/14 00:48:16;;;;;;;16.45;4.70;;;;;;;;;;1718607;81;21068;-90
2022/11/14 00:50:42;;;;;;;12.23;4.58;;;;;;;;;;1718701;81;21062;-90
2022/11/14 00:53:08;;;;;;;10.72;4.65;;;;;;;;;;1718822;81;20999;-89
2022/11/14 00:55:33;;;;;;;12.15;4.75;;;;;;;;;;1718971;81;20884;-91
2022/11/14 00:57:59;;;;;;;11.55;4.22;;;;;;;;;;1718633;82;20900;-90
2022/11/14 01:00:25;;;;;;;13.53;3.95;;;;;;;;;;1718852;81;21006;-91
2022/11/14 01:02:50;;;;;;;10.63;4.00;;;;;;;;;;1728949;82;21622;-90
2022/11/14 01:05:16;;;;;;;14.05;3.95;;;;;;;;;;1730650;82;20838;-91
2022/11/14 01:07:42;;;;;;;9.75;4.15;;;;;;;;;;1730554;82;21602;-91
2022/11/14 01:10:08;;;;;;;18.90;4.20;;;;;;;;;;1730810;82;20976;-90
2022/11/14 01:12:34;;;;;;;13.88;3.83;;;;;;;;;;1730412;82;21551;-91
2022/11/14 01:15:00;;;;;;;11.12;4.08;;;;;;;;;;1730706;82;20873;-91
2022/11/14 01:17:27;;;;;;;8.13;3.58;;;;;;;;;;1730661;82;20913;-89
2022/11/14 01:19:53;;;;;;;10.98;3.77;;;;;;;;;;1730453;82;21118;-91
2022/11/14 01:22:19;;;;;;;10.30;4.03;;;;;;;;;;1730520;82;21043;-90
2022/11/14 01:24:45;;;;;;;12.28;4.47;;;;;;;;;;1730870;82;21849;-92
2022/11/14 01:27:10;;;;;;;16.35;4.53;;;;;;;;;;1730621;82;20876;-92
2022/11/14 01:29:36;;;;;;;10.32;3.75;;;;;;;;;;1730910;82;21021;-89
2022/11/14 01:32:02;;;;;;;9.43;3.87;;;;;;;;;;1730867;82;20818;-91
2022/11/14 01:34:28;;;;;;;11.90;3.80;;;;;;;;;;1730720;82;21725;-91
2022/11/14 01:36:54;;;;;;;12.28;4.28;;;;;;;;;;1730793;82;21171;-92
2022/11/14 01:39:19;;;;;;;9.93;3.92;;;;;;;;;;1730881;82;20920;-93
2022/11/14 01:41:45;;;;;;;9.13;3.55;;;;;;;;;;1730694;82;20901;-92
2022/11/14 01:44:15;;;;;;;9.48;4.20;;;;;;;;;;1731214;82;20929;-92
2022/11/14 01:46:41;;;;;;;13.98;4.15;;;;;;;;;;1621130;87;21152;-93
2022/11/14 01:49:19;;;;;;;12.37;4.58;;;;;;;;;;1620587;88;21106;-92
2022/11/14 01:52:00;;;;;;;12.80;4.30;;;;;;;;;;1620972;88;21063;-93
2022/11/14 01:54:32;;;;;;;13.98;4.53;;;;;;;;;;1621153;88;21047;-92
2022/11/14 01:57:00;;;;;;;12.13;4.50;;;;;;;;;;1619997;87;21095;-92
2022/11/14 01:59:31;;;;;;;11.60;4.53;;;;;;;;;;1620939;88;21174;-92
2022/11/14 02:02:00;;;;;;;11.73;4.60;;;;;;;;;;1621216;87;21126;-91
2022/11/14 02:04:29;;;;;;;14.85;4.42;;;;;;;;;;1621031;88;21035;-92
2022/11/14 02:06:58;;;;;;;10.95;4.10;;;;;;;;;;1621123;88;21048;-92
2022/11/14 02:09:24;;;;;;;8.30;3.52;;;;;;;;;;1620711;88;21031;-91
2022/11/14 02:11:51;;;;;;;8.43;3.92;;;;;;;;;;1620587;88;21316;-91
2022/11/14 02:14:17;;;;;;;14.65;3.75;;;;;;;;;;1621012;88;21197;-91
2022/11/14 02:16:43;;;;;;;12.63;4.17;;;;;;;;;;1620940;88;21031;-92
2022/11/14 02:19:09;;;;;;;11.00;3.95;;;;;;;;;;1621341;87;20967;-90
2022/11/14 02:21:35;;;;;;;13.35;4.15;;;;;;;;;;1620722;88;21196;-92
2022/11/14 02:24:00;;;;;;;11.33;4.00;;;;;;;;;;1620695;88;21010;-92
2022/11/14 02:26:26;;;;;;;10.15;3.92;;;;;;;;;;1621304;87;21168;-91
2022/11/14 02:28:52;;;;;;;9.38;3.98;;;;;;;;;;1620852;88;21162;-92
2022/11/14 02:31:18;;;;;;;10.72;3.58;;;;;;;;;;1621174;88;20939;-92
2022/11/14 02:33:44;;;;;;;25.32;5.12;;;;;;;;;;1620904;87;21095;-92
2022/11/14 02:36:09;;;;;;;10.75;3.80;;;;;;;;;;1621131;87;20945;-91
2022/11/14 02:38:35;;;;;;;10.45;3.90;;;;;;;;;;1620814;88;21151;-94
2022/11/14 02:41:01;;;;;;;14.28;4.65;;;;;;;;;;1620863;88;21012;-92
2022/11/14 02:43:27;;;;;;;11.10;4.05;;;;;;;;;;1671651;82;20912;-92
2022/11/14 02:45:52;;;;;;;12.53;4.35;;;;;;;;;;1731052;82;20794;-92
2022/11/14 02:48:18;;;;;;;14.07;3.92;;;;;;;;;;1730727;82;20987;-92
2022/11/14 02:50:44;;;;;;;13.90;4.10;;;;;;;;;;1731293;82;21093;-93
2022/11/14 02:53:09;;;;;;;17.80;4.60;;;;;;;;;;1731214;82;20873;-93
2022/11/14 02:55:35;;;;;;;14.38;3.90;;;;;;;;;;1731249;82;20802;-95
2022/11/14 02:58:01;;;;;;;9.98;3.72;;;;;;;;;;1731240;82;20880;-92
2022/11/14 03:00:26;;;;;;;15.93;4.37;;;;;;;;;;1731253;82;20904;-93
2022/11/14 03:02:53;;;;;;;12.20;4.17;;;;;;;;;;1731147;82;21896;-92
2022/11/14 03:05:19;;;;;;;13.10;4.10;;;;;;;;;;1730944;82;21094;-91
2022/11/14 03:07:45;;;;;;;11.63;4.10;;;;;;;;;;1731136;82;21004;-92
2022/11/14 03:10:12;;;;;;;10.32;3.62;;;;;;;;;;1731246;82;21022;-93
2022/11/14 03:12:39;;;;;;;9.80;3.85;;;;;;;;;;1731110;82;21413;-92
2022/11/14 03:15:06;;;;;;;9.13;3.70;;;;;;;;;;1731198;82;21148;-92
2022/11/14 03:17:33;;;;;;;9.70;3.83;;;;;;;;;;1730938;82;20992;-92
2022/11/14 03:19:59;;;;;;;13.25;3.45;;;;;;;;;;1730731;82;21008;-92
2022/11/14 03:22:25;;;;;;;10.13;3.65;;;;;;;;;;1730881;82;21119;-92
2022/11/14 03:24:51;;;;;;;9.08;3.20;;;;;;;;;;1731334;82;21031;-91
2022/11/14 03:27:17;;;;;;;8.63;3.40;;;;;;;;;;1730975;82;21658;-92
2022/11/14 03:29:43;;;;;;;8.60;3.62;;;;;;;;;;1731122;82;20952;-92
2022/11/14 03:32:08;;;;;;;8.45;3.08;;;;;;;;;;1730951;82;20872;-92
2022/11/14 03:34:34;;;;;;;8.85;3.15;;;;;;;;;;1731123;82;20944;-92
2022/11/14 03:37:00;;;;;;;8.68;3.47;;;;;;;;;;1730819;82;20924;-92
2022/11/14 03:39:26;;;;;;;7.30;3.10;;;;;;;;;;1731075;82;21060;-92
2022/11/14 03:41:52;;;;;;;9.28;3.12;;;;;;;;;;1730946;82;21015;-92
2022/11/14 03:44:18;;;;;;;8.25;3.62;;;;;;;;;;1731041;82;20837;-92
2022/11/14 03:46:43;;;;;;;10.60;3.85;;;;;;;;;;1730939;82;21523;-93
2022/11/14 03:49:09;;;;;;;9.85;3.75;;;;;;;;;;1730795;82;20925;-93
2022/11/14 03:51:35;;;;;;;15.35;4.95;;;;;;;;;;1730786;82;21093;-91
2022/11/14 03:54:00;;;;;;;10.18;3.50;;;;;;;;;;1730738;82;20877;-92
2022/11/14 03:56:26;;;;;;;7.97;3.47;;;;;;;;;;1730647;82;20877;-91
2022/11/14 03:58:52;;;;;;;10.68;4.65;;;;;;;;;;1708805;82;20821;-93
2022/11/14 04:01:17;;;;;;;11.97;4.40;;;;;;;;;;1731048;82;20913;-92
2022/11/14 04:03:43;;;;;;;12.63;4.20;;;;;;;;;;1724191;83;21357;-93
2022/11/14 04:06:08;;;;;;;10.43;3.70;;;;;;;;;;1726003;82;20909;-93
2022/11/14 04:08:34;;;;;;;13.65;4.37;;;;;;;;;;1705593;83;20973;-93
2022/11/14 04:11:00;;;;;;;13.35;3.77;;;;;;;;;;1726056;82;20873;-92
2022/11/14 04:13:26;;;;;;;7.47;3.50;;;;;;;;;;1726100;83;20830;-92
2022/11/14 04:15:56;;;;;;;12.03;3.58;;;;;;;;;;1726191;83;21686;-93
2022/11/14 04:18:22;;;;;;;7.33;3.60;;;;;;;;;;1726013;82;20993;-93
2022/11/14 04:20:47;;;;;;;8.03;3.25;;;;;;;;;;1726010;82;21033;-92
2022/11/14 04:23:13;;;;;;;12.40;3.22;;;;;;;;;;1725981;82;20932;-92
2022/11/14 04:25:39;;;;;;;7.30;3.12;;;;;;;;;;1726170;82;20862;-91
2022/11/14 04:28:04;;;;;;;6.67;3.05;;;;;;;;;;1726176;83;21955;-93
2022/11/14 04:30:30;;;;;;;10.78;3.55;;;;;;;;;;1726039;83;20835;-93
2022/11/14 04:32:55;;;;;;;14.20;3.37;;;;;;;;;;1726232;82;20992;-91
2022/11/14 04:35:21;;;;;;;8.85;3.10;;;;;;;;;;1726040;82;20834;-93
2022/11/14 04:37:47;;;;;;;8.15;2.87;;;;;;;;;;1726041;83;21441;-89
2022/11/14 04:40:13;;;;;;;11.85;3.30;;;;;;;;;;1726435;82;21081;-92
2022/11/14 04:42:38;;;;;;;9.80;3.72;;;;;;;;;;1726105;83;21078;-92
2022/11/14 04:45:06;;;;;;;9.18;3.27;;;;;;;;;;1726070;83;21041;-92
2022/11/14 04:47:32;;;;;;;9.65;2.95;;;;;;;;;;1725898;82;20981;-92
2022/11/14 04:49:57;;;;;;;11.63;3.33;;;;;;;;;;1729672;82;20897;-93
2022/11/14 04:52:23;;;;;;;10.00;3.45;;;;;;;;;;1726112;83;21137;-93
2022/11/14 04:54:49;;;;;;;10.75;3.30;;;;;;;;;;1725990;82;20810;-93
2022/11/14 04:57:16;;;;;;;8.08;3.33;;;;;;;;;;1726207;83;21591;-93
2022/11/14 04:59:42;;;;;;;10.25;3.75;;;;;;;;;;1725865;82;21020;-92
2022/11/14 05:02:07;;;;;;;13.48;4.10;;;;;;;;;;1724961;82;21006;-93
2022/11/14 05:04:33;;;;;;;11.80;3.72;;;;;;;;;;1719451;81;21109;-93
2022/11/14 05:06:59;;;;;;;12.55;4.10;;;;;;;;;;1719061;82;20888;-92
2022/11/14 05:09:25;;;;;;;14.50;3.98;;;;;;;;;;1719277;81;21590;-93
2022/11/14 05:11:50;;;;;;;17.05;3.70;;;;;;;;;;1719280;81;21054;-92
2022/11/14 05:14:16;;;;;;;10.13;3.77;;;;;;;;;;1719144;81;20991;-93
2022/11/14 05:16:42;;;;;;;11.43;3.95;;;;;;;;;;1719291;82;21801;-92
2022/11/14 05:19:08;;;;;;;14.45;4.00;;;;;;;;;;1718866;81;20899;-93
2022/11/14 05:21:33;;;;;;;12.18;4.10;;;;;;;;;;1719669;81;20912;-92
2022/11/14 05:23:59;;;;;;;15.80;4.53;;;;;;;;;;1719111;81;20817;-93
2022/11/14 05:26:25;;;;;;;15.63;4.20;;;;;;;;;;1719389;81;20979;-92
2022/11/14 05:28:50;;;;;;;13.90;4.45;;;;;;;;;;1719014;81;21069;-92
2022/11/14 05:31:19;;;;;;;14.95;3.87;;;;;;;;;;1719093;81;20837;-93
2022/11/14 05:33:48;;;;;;;13.62;3.60;;;;;;;;;;1718986;81;21099;-91
2022/11/14 05:36:15;;;;;;;10.70;3.33;;;;;;;;;;1719531;82;21039;-93
2022/11/14 05:38:41;;;;;;;12.90;3.98;;;;;;;;;;1719160;81;21531;-93
2022/11/14 05:41:09;;;;;;;7.10;3.10;;;;;;;;;;1688672;82;21134;-93
2022/11/14 05:43:35;;;;;;;8.30;3.33;;;;;;;;;;1718904;81;21078;-92
2022/11/14 05:46:03;;;;;;;9.55;3.55;;;;;;;;;;1719123;81;21016;-92
2022/11/14 05:48:29;;;;;;;10.23;3.98;;;;;;;;;;1718998;81;21081;-93
2022/11/14 05:50:59;;;;;;;7.85;3.55;;;;;;;;;;1718914;81;21078;-93
2022/11/14 05:53:26;;;;;;;8.48;3.02;;;;;;;;;;1688460;82;21095;-93
2022/11/14 05:55:54;;;;;;;7.05;3.02;;;;;;;;;;1718930;81;21090;-93
2022/11/14 05:58:20;;;;;;;12.25;3.70;;;;;;;;;;1718931;81;21070;-93
2022/11/14 06:00:47;;;;;;;9.18;3.30;;;;;;;;;;1718730;81;21098;-92
2022/11/14 06:03:13;;;;;;;7.12;3.50;;;;;;;;;;1724234;81;21117;-94
2022/11/14 06:05:39;;;;;;;5.30;3.08;;;;;;;;;;1730376;82;21149;-92
2022/11/14 06:08:05;;;;;;;9.03;3.30;;;;;;;;;;1731045;82;21630;-93
2022/11/14 06:10:30;;;;;;;9.63;3.05;;;;;;;;;;1730622;82;20960;-92
2022/11/14 06:12:56;;;;;;;5.87;2.75;;;;;;;;;;1731040;82;20884;-93
2022/11/14 06:15:22;;;;;;;7.10;2.90;;;;;;;;;;1709992;82;20889;-92
2022/11/14 06:17:48;;;;;;;7.10;2.80;;;;;;;;;;1730738;82;21104;-91
2022/11/14 06:20:14;;;;;;;6.55;2.47;;;;;;;;;;1730459;82;20842;-91
2022/11/14 06:22:41;;;;;;;4.67;2.75;;;;;;;;;;1730639;82;21067;-90
2022/11/14 06:25:07;;;;;;;4.10;2.60;;;;;;;;;;1730812;82;21067;-91
2022/11/14 06:27:33;;;;;;;4.50;2.40;;;;;;;;;;1730998;82;21556;-91
2022/11/14 06:29:59;;;;;;;9.05;2.37;;;;;;;;;;1730942;82;21076;-91
2022/11/14 06:32:24;;;;;;;6.00;2.55;;;;;;;;;;1730917;82;20956;-90
2022/11/14 06:34:50;;;;;;;3.55;2.30;;;;;;;;;;1731236;82;20889;-90
2022/11/14 06:37:16;;;;;;;4.42;2.20;;;;;;;;;;1731029;82;20838;-90
2022/11/14 06:39:42;;;;;;;7.42;2.22;;;;;;;;;;1731135;82;20873;-90
2022/11/14 06:42:07;;;;;;;6.37;2.33;;;;;;;;;;1730921;82;21645;-90
2022/11/14 06:44:33;;;;;;;4.42;2.27;;;;;;;;;;1730764;82;20864;-90
2022/11/14 06:46:59;;;;;;;4.30;2.52;;;;;;;;;;1731123;82;21642;-89
2022/11/14 06:49:26;;;;;;;3.62;1.90;;;;;;;;;;1731003;82;20944;-90
2022/11/14 06:51:52;;;;;;;4.50;2.00;;;;;;;;;;1730327;82;20957;-90
2022/11/14 06:54:18;;;;;;;3.08;2.12;;;;;;;;;;1735925;81;21908;-90
2022/11/14 06:56:44;;;;;;;6.17;2.45;;;;;;;;;;1728402;82;20900;-89
2022/11/14 06:59:10;;;;;;;3.83;2.10;;;;;;;;;;1728459;83;20985;-89
2022/11/14 07:01:36;;;;;;;2.70;2.10;;;;;;;;;;1728623;83;20940;-93
2022/11/14 07:04:02;;;;;;;2.37;2.08;;;;;;;;;;1728469;82;21057;-90
2022/11/14 07:06:29;;;;;;;3.55;2.35;;;;;;;;;;1729917;81;21048;-92
2022/11/14 07:08:56;;;;;;;2.90;2.08;;;;;;;;;;1731760;81;21025;-87
2022/11/14 07:11:25;;;;;;;2.90;2.05;;;;;;;;;;1735043;81;21498;-89
2022/11/14 07:13:59;;;;;;;4.20;2.20;;;;;;;;;;1753147;80;20943;-90
2022/11/14 07:16:30;;;;;;;3.58;2.15;;;;;;;;;;1753251;81;21112;-87
2022/11/14 07:18:57;;;;;;;2.73;2.30;;;;;;;;;;1753248;81;21066;-90
2022/11/14 07:21:24;;;;;;;2.70;1.80;;;;;;;;;;1753099;81;21475;-91
2022/11/14 07:23:50;;;;;;;2.92;2.30;;;;;;;;;;1753277;81;21018;-89
2022/11/14 07:26:16;;;;;;;4.45;2.30;;;;;;;;;;1753063;81;20867;-91
2022/11/14 07:28:43;;;;;;;2.70;2.10;;;;;;;;;;1753524;81;21522;-91
2022/11/14 07:31:11;;;;;;;2.10;1.90;;;;;;;;;;1753247;81;22361;-91
2022/11/14 07:33:38;;;;;;;4.67;2.47;;;;;;;;;;1723780;81;20976;-90
2022/11/14 07:36:04;;;;;;;5.05;2.40;;;;;;;;;;1753751;80;21058;-91
2022/11/14 07:38:31;;;;;;;4.53;2.33;;;;;;;;;;1753583;80;21042;-89
2022/11/14 07:40:59;;;;;;;2.90;2.15;;;;;;;;;;1748542;80;21099;-91
2022/11/14 07:43:25;;;;;;;3.65;2.62;;;;;;;;;;1753408;81;21224;-90
2022/11/14 07:45:51;;;;;;;4.35;2.70;;;;;;;;;;1753326;81;21034;-90
2022/11/14 07:48:17;;;;;;;4.20;2.45;;;;;;;;;;1753461;81;20958;-91
2022/11/14 07:50:43;;;;;;;5.00;2.77;;;;;;;;;;1753341;80;21416;-90
2022/11/14 07:53:10;;;;;;;4.15;2.67;;;;;;;;;;1724079;81;20981;-89
2022/11/14 07:55:36;;;;;;;7.42;2.65;;;;;;;;;;1753322;81;21038;-90
2022/11/14 07:58:02;;;;;;;4.53;2.90;;;;;;;;;;1753541;81;21422;-90
2022/11/14 08:00:28;;;;;;;3.37;2.37;;;;;;;;;;1753632;81;21069;-90
2022/11/14 08:02:54;;;;;;;3.10;2.72;;;;;;;;;;1753020;80;20863;-90
2022/11/14 08:05:20;;;;;;;6.00;2.95;;;;;;;;;;1745615;82;20934;-89
2022/11/14 08:07:45;;;;;;;4.78;3.00;;;;;;;;;;1724561;82;21026;-89
2022/11/14 08:10:13;;;;;;;3.42;2.65;;;;;;;;;;1723789;83;20966;-90
2022/11/14 08:12:39;;;;;;;2.37;2.17;;;;;;;;;;1723407;83;21010;-89
2022/11/14 08:15:10;;;;;;;5.00;2.00;;;;;;;;;;1720112;83;21022;-89
2022/11/14 08:17:36;;;;;;;3.80;1.67;;;;;;;;;;1651253;86;27237;-89
2022/11/14 08:20:03;;;;;;;1.40;1.30;;;;;;;;;;1651359;86;21078;-88
2022/11/14 08:22:30;;;;;;;2.08;1.27;;;;;;;;;;1651052;85;21104;-89
2022/11/14 08:24:56;;;;;;;2.87;1.30;;;;;;;;;;1651072;86;21016;-89
2022/11/14 08:27:22;;;;;;;3.58;1.37;;;;;;;;;;1629523;86;21464;-88
2022/11/14 08:29:49;;;;;;;3.15;1.42;;;;;;;;;;1651438;86;20899;-89
2022/11/14 08:32:15;;;;;;;2.25;1.10;;;;;;;;;;1651057;86;21100;-88
2022/11/14 08:34:41;;;;;;;5.25;1.05;;;;;;;;;;1651308;86;20913;-90
2022/11/14 08:37:07;;;;;;;3.70;1.22;;;;;;;;;;1651268;85;20920;-91
2022/11/14 08:39:32;;;;;;;4.53;1.35;;;;;;;;;;1651681;85;20912;-85
2022/11/14 08:41:58;;;;;;;4.08;1.12;;;;;;;;;;1679562;83;21783;-89
2022/11/14 08:44:24;;;;;;;6.58;1.60;;;;;;;;;;1723291;82;21139;-87
2022/11/14 08:46:50;;;;;;;3.70;1.15;;;;;;;;;;1723528;82;21052;-90
2022/11/14 08:49:15;;;;;;;6.05;1.30;;;;;;;;;;1723271;83;20792;-89
2022/11/14 08:51:41;;;;;;;2.25;0.95;;;;;;;;;;1723097;83;20883;-87
2022/11/14 08:54:07;;;;;;;2.98;1.30;;;;;;;;;;1723368;82;20977;-86
2022/11/14 08:56:33;;;;;;;4.05;1.52;;;;;;;;;;1723932;82;21064;-89
2022/11/14 08:59:03;;;;;;;2.58;1.00;;;;;;;;;;1723892;83;20914;-85
2022/11/14 09:01:31;;;;;;;4.03;1.20;;;;;;;;;;1724625;82;21045;-87
2022/11/14 09:03:57;;;;;;;2.52;1.27;;;;;;;;;;1720985;82;21072;-87
2022/11/14 09:06:23;;;;;;;5.28;1.00;;;;;;;;;;1723921;82;21606;-87
2022/11/14 09:08:49;;;;;;;4.45;0.82;;;;;;;;;;1723933;82;21109;-86
2022/11/14 09:11:15;;;;;;;3.20;1.07;;;;;;;;;;1724065;83;21040;-87
2022/11/14 09:13:40;;;;;;;2.67;0.80;;;;;;;;;;1724060;83;20965;-86
2022/11/14 09:16:07;;;;;;;3.00;1.07;;;;;;;;;;1657748;85;20927;-87
2022/11/14 09:18:33;;;;;;;7.00;1.35;;;;;;;;;;1656488;84;21020;-87
2022/11/14 09:21:06;;;;;;;7.50;1.85;;;;;;;;;;1661625;85;20979;-87
2022/11/14 09:23:32;;;;;;;4.28;1.47;;;;;;;;;;1658097;85;21088;-88
2022/11/14 09:26:04;;;;;;;3.02;1.20;;;;;;;;;;1656462;83;20999;-89
2022/11/14 09:28:30;;;;;;;6.80;1.32;;;;;;;;;;1655324;85;21091;-87
2022/11/14 09:31:05;;;;;;;2.22;1.07;;;;;;;;;;1658163;85;20909;-91
2022/11/14 09:33:32;;;;;;;1.95;0.90;;;;;;;;;;1580793;89;21167;-87
2022/11/14 09:36:00;;;;;;;3.52;0.82;;;;;;;;;;1579968;89;21072;-87
2022/11/14 09:38:26;;;;;;;1.85;0.95;;;;;;;;;;1581233;88;21095;-93
2022/11/14 09:41:23;;;;;;;3.12;0.98;;;;;;;;;;1617803;86;21035;-88
2022/11/14 09:44:26;;;;;;;3.80;1.00;;;;;;;;;;1647527;87;21109;-88
2022/11/14 09:46:58;;;;;;;2.27;0.90;;;;;;;;;;1647816;87;21090;-86
2022/11/14 09:49:41;;;;;;;3.20;0.80;;;;;;;;;;1647751;87;21620;-88
2022/11/14 09:52:16;;;;;;;2.52;0.93;;;;;;;;;;1647576;87;27087;-91
2022/11/14 09:54:48;;;;;;;1.62;0.82;;;;;;;;;;1642916;86;21062;-90
2022/11/14 09:57:16;;;;;;;4.57;0.90;;;;;;;;;;1567061;91;21044;-87
2022/11/14 09:59:42;;;;;;;4.05;1.30;;;;;;;;;;1566268;91;21854;-87
2022/11/14 10:02:30;;;;;;;2.17;0.72;;;;;;;;;;1566898;91;20994;-89
2022/11/14 10:05:18;;;;;;;6.65;0.90;;;;;;;;;;1537587;92;21491;-87
2022/11/14 10:08:10;;;;;;;2.90;0.72;;;;;;;;;;1536248;93;21119;-88
2022/11/14 10:10:51;;;;;;;5.10;0.80;;;;;;;;;;1539376;92;21054;-89
2022/11/14 10:13:39;;;;;;;3.62;1.10;;;;;;;;;;1512361;94;22096;-87
2022/11/14 10:16:43;;;;;;;3.15;1.05;;;;;;;;;;1506119;94;21014;-88
2022/11/14 10:19:24;;;;;;;3.42;1.02;;;;;;;;;;1480844;94;21183;-90
2022/11/14 10:22:00;;;;;;;7.05;1.12;;;;;;;;;;1473116;97;21258;-89
2022/11/14 10:24:47;;;;;;;1.77;0.90;;;;;;;;;;1472989;97;21103;-90
2022/11/14 10:27:19;;;;;;;3.58;0.72;;;;;;;;;;1472678;97;21303;-89
2022/11/14 10:29:57;;;;;;;3.90;0.80;;;;;;;;;;1457536;94;21114;-90
2022/11/14 10:35:39;;;;;;;3.83;0.90;;;;;;;;;;1479833;96;21647;-90
2022/11/14 10:38:17;;;;;;;4.05;1.15;;;;;;;;;;1488764;95;21181;-89
2022/11/14 10:40:52;;;;;;;3.65;0.90;;;;;;;;;;1458722;97;21729;-89
2022/11/14 10:43:31;;;;;;;3.67;1.30;;;;;;;;;;1482807;95;21139;-90
2022/11/14 10:46:06;;;;;;;2.90;0.98;;;;;;;;;;1459389;96;21099;-89
2022/11/14 10:48:40;;;;;;;4.70;0.80;;;;;;;;;;1437397;98;21234;-90
2022/11/14 10:51:09;;;;;;;1.50;0.93;;;;;;;;;;1522473;92;21592;-90
2022/11/14 10:53:54;;;;;;;2.47;0.78;;;;;;;;;;1471209;97;21159;-89
2022/11/14 10:56:20;;;;;;;3.08;0.80;;;;;;;;;;1495644;95;21256;-91
2022/11/14 10:58:46;;;;;;;1.25;0.70;;;;;;;;;;1469594;97;21569;-90
2022/11/14 11:01:31;;;;;;;6.40;0.93;;;;;;;;;;1515143;94;21711;-90
2022/11/14 11:03:57;;;;;;;4.58;0.90;;;;;;;;;;1515715;94;21741;-89
2022/11/14 11:06:27;;;;;;;2.75;0.70;;;;;;;;;;1525882;92;21179;-89
2022/11/14 11:11:40;;;;;;;2.95;0.60;;;;;;;;;;1559017;90;21109;-90
2022/11/14 11:14:09;;;;;;;2.55;0.90;;;;;;;;;;1539888;92;21085;-89
2022/11/14 11:16:35;;;;;;;2.83;0.88;;;;;;;;;;1503038;93;21667;-91
2022/11/14 11:19:16;;;;;;;5.72;1.07;;;;;;;;;;1502561;94;21112;-88
2022/11/14 11:21:51;;;;;;;3.22;0.88;;;;;;;;;;1454962;97;21065;-88
2022/11/14 11:24:34;;;;;;;4.08;0.93;;;;;;;;;;1457627;97;21205;-88
2022/11/14 11:27:08;;;;;;;;;;;;;;;;;;1460029;97;21107;-90
2022/11/14 11:29:34;;;;;;;2.55;0.95;;;;;;;;;;1419647;99;20277;-90
2022/11/14 11:31:59;;;;;;;1.55;0.60;;;;;;;;;;1445284;97;21290;-90
2022/11/14 11:34:31;;;;;;;3.05;1.10;;;;;;;;;;1455537;97;21185;-90
2022/11/14 11:37:09;;;;;;;3.62;1.47;;;;;;;;;;1454131;97;21118;-90
2022/11/14 11:39:39;;;;;;;2.85;1.07;;;;;;;;;;1425474;100;21096;-90
2022/11/14 11:42:07;;;;;;;2.58;0.95;;;;;;;;;;1423865;100;21232;-90
2022/11/14 11:44:35;;;;;;;3.35;1.07;;;;;;;;;;1423686;100;22276;-90
2022/11/14 11:47:03;;;;;;;3.22;1.12;;;;;;;;;;1423786;100;21143;-89
2022/11/14 11:49:36;;;;;;;2.65;0.80;;;;;;;;;;1424035;100;21147;-87
2022/11/14 11:52:22;;;;;;;2.70;1.00;;;;;;;;;;1424699;100;21091;-93
2022/11/14 11:54:54;;;;;;;4.85;1.32;;;;;;;;;;1424581;100;21478;-88
2022/11/14 11:57:23;;;;;;;4.55;1.12;;;;;;;;;;1425029;100;21962;-89
2022/11/14 11:59:52;;;;;;;6.08;1.00;;;;;;;;;;1452293;98;21133;-88
2022/11/14 12:02:27;;;;;;;3.95;1.20;;;;;;;;;;1474578;97;21147;-88
2022/11/14 12:04:55;;;;;;;2.90;1.20;;;;;;;;;;1474559;96;21643;-93
2022/11/14 12:07:39;;;;;;;3.12;1.30;;;;;;;;;;1513118;94;21620;-87
2022/11/14 12:10:08;;;;;;;4.25;1.52;;;;;;;;;;1501061;95;22972;-86
2022/11/14 12:12:50;;;;;;;5.83;1.50;;;;;;;;;;1468402;95;21085;-85
2022/11/14 12:18:39;;;;;;;1.87;1.02;;;;;;;;;;1554461;91;21138;-92
2022/11/14 12:21:27;;;;;;;2.62;0.88;;;;;;;;;;1583277;89;21049;-90
2022/11/14 12:24:07;;;;;;;1.92;0.85;;;;;;;;;;1545779;92;21127;-90
2022/11/14 12:27:10;;;;;;;3.47;1.15;;;;;;;;;;1546179;92;21084;-91
2022/11/14 12:29:49;;;;;;;5.25;1.45;;;;;;;;;;1545900;92;21055;-89
2022/11/14 12:32:21;;;;;;;3.05;1.40;;;;;;;;;;1545972;91;21127;-88
2022/11/14 12:34:47;;;;;;;5.80;1.32;;;;;;;;;;1543020;92;21581;-88
2022/11/14 12:37:23;;;;;;;4.70;1.90;;;;;;;;;;1545939;91;21120;-91
2022/11/14 12:39:58;;;;;;;10.13;2.22;;;;;;;;;;1467282;96;21084;-90
2022/11/14 12:42:24;;;;;;;5.70;1.90;;;;;;;;;;1435576;99;21168;-89
2022/11/14 12:44:51;;;;;;;6.72;2.33;;;;;;;;;;1435591;98;21109;-90
2022/11/14 12:47:22;;;;;;;8.68;2.40;;;;;;;;;;1435164;100;21326;-92
2022/11/14 12:49:55;;;;;;;8.98;2.30;;;;;;;;;;1461312;97;21279;-93
2022/11/14 12:52:42;;;;;;;8.15;2.33;;;;;;;;;;1461261;98;22163;-90
2022/11/14 12:55:26;;;;;;;5.83;1.60;;;;;;;;;;1461292;98;21068;-89
2022/11/14 12:58:05;;;;;;;3.98;1.55;;;;;;;;;;1461177;98;21132;-87
2022/11/14 13:00:33;;;;;;;2.65;1.35;;;;;;;;;;1461460;97;21133;-91
2022/11/14 13:03:20;;;;;;;5.35;1.35;;;;;;;;;;1461076;98;21198;-92
2022/11/14 13:05:55;;;;;;;4.55;1.42;;;;;;;;;;1468810;97;21664;-90
2022/11/14 13:08:36;;;;;;;4.00;1.42;;;;;;;;;;1472639;97;21205;-92
2022/11/14 13:22:48;;;;;;;5.12;1.75;;;;;;;;;;1452857;98;21147;-91
2022/11/14 13:25:16;;;;;;;6.83;2.15;;;;;;;;;;1452610;98;21662;-92
2022/11/14 13:27:42;;;;;;;6.83;1.72;;;;;;;;;;1469921;95;21040;-91
2022/11/14 13:30:08;;;;;;;6.35;2.20;;;;;;;;;;1472473;96;21254;-91
2022/11/14 13:32:43;;;;;;;7.20;1.80;;;;;;;;;;1471546;97;21075;-92
2022/11/14 13:35:24;;;;;;;7.45;2.25;;;;;;;;;;1474920;97;21212;-91
2022/11/14 13:38:17;;;;;;;5.95;2.05;;;;;;;;;;1474934;97;21128;-92
2022/11/14 13:41:16;;;;;;;6.78;1.90;;;;;;;;;;1491794;95;21136;-91
2022/11/14 13:43:45;;;;;;;4.65;1.90;;;;;;;;;;1487691;96;21153;-90
2022/11/14 13:46:45;;;;;;;9.05;1.77;;;;;;;;;;1511199;90;21092;-88
2022/11/14 13:49:39;;;;;;;7.25;1.87;;;;;;;;;;1512544;93;21644;-91
2022/11/14 13:52:04;;;;;;;;;;;;;;;;;;1615039;89;21601;-90
2022/11/14 13:54:30;;;;;;;7.10;1.67;;;;;;;;;;1605113;88;20143;-91
2022/11/14 13:57:24;;;;;;;4.25;1.67;;;;;;;;;;1587579;88;21105;-90
2022/11/14 13:59:52;;;;;;;;;;;;;;;;;;1586700;89;21108;-89
2022/11/14 14:02:24;;;;;;;4.47;2.02;;;;;;;;;;1587699;89;20194;-90
2022/11/14 14:05:02;;;;;;;5.25;1.70;;;;;;;;;;1584830;89;21149;-90
2022/11/14 14:07:31;;;;;;;6.15;1.98;;;;;;;;;;1570530;89;21123;-90
2022/11/14 14:10:23;;;;;;;6.40;2.10;;;;;;;;;;1572575;89;21167;-90
2022/11/14 14:13:04;;;;;;;8.60;2.65;;;;;;;;;;1572469;89;21111;-91
2022/11/14 14:15:46;;;;;;;6.97;2.00;;;;;;;;;;1572264;89;21062;-91
2022/11/14 14:18:30;;;;;;;12.33;3.00;;;;;;;;;;1596606;89;21531;-91
2022/11/14 14:21:18;;;;;;;15.10;4.47;;;;;;;;;;1599183;89;21554;-90
2022/11/14 14:23:48;;;;;;;20.50;5.60;;;;;;;;;;1635542;86;21143;-91
2022/11/14 14:26:36;;;;;;;20.40;5.45;;;;;;;;;;1657980;86;20968;-90
2022/11/14 14:29:18;;;;;;;33.55;7.60;;;;;;;;;;1660987;86;21044;-90
2022/11/14 14:31:43;;;;;;;32.28;7.20;;;;;;;;;;1661119;86;21095;-90
2022/11/14 14:34:27;;;;;;;24.57;6.37;;;;;;;;;;1660957;86;20984;-90
2022/11/14 14:36:54;;;;;;;27.20;6.87;;;;;;;;;;1614797;87;21192;-90
2022/11/14 14:39:25;;;;;;;24.60;6.67;;;;;;;;;;1614782;88;21615;-90
2022/11/14 14:41:53;;;;;;;21.85;6.45;;;;;;;;;;1615014;88;21129;-90
2022/11/14 14:44:28;;;;;;;18.35;5.60;;;;;;;;;;1614794;88;21101;-90
2022/11/14 14:46:54;;;;;;;20.70;6.85;;;;;;;;;;1614824;87;21631;-88
2022/11/14 14:49:23;;;;;;;25.02;7.50;;;;;;;;;;1613593;88;21169;-90
2022/11/14 14:51:49;;;;;;;35.48;7.28;;;;;;;;;;1552020;92;21097;-92
2022/11/14 14:54:23;;;;;;;30.17;7.62;;;;;;;;;;1552151;92;20950;-90
2022/11/14 14:56:54;;;;;;;28.25;7.55;;;;;;;;;;1552075;92;21105;-90
2022/11/14 14:59:24;;;;;;;30.92;7.75;;;;;;;;;;1552139;92;21165;-88
2022/11/14 15:01:50;;;;;;;34.23;7.87;;;;;;;;;;1550352;92;21143;-90
2022/11/14 15:04:16;;;;;;;27.73;7.85;;;;;;;;;;1550570;92;21023;-88
2022/11/14 15:06:45;;;;;;;35.43;8.85;;;;;;;;;;1559988;91;21071;-89
2022/11/14 15:09:19;;;;;;;37.80;8.88;;;;;;;;;;1586333;88;21201;-90
2022/11/14 15:11:47;;;;;;;39.42;7.60;;;;;;;;;;1557735;92;20992;-89
2022/11/14 15:14:15;;;;;;;38.98;7.03;;;;;;;;;;1557779;92;21184;-89